sensor_id;sensor_type;location;lat;lon;timestamp;P1;durP1;ratioP1;P2;durP2;ratioP2
61076;SDS011;46956;52.186;19.716;2022-07-06T00:00:19;23.73;;;15.52;;
61076;SDS011;46956;52.186;19.716;2022-07-06T00:03:02;18.73;;;14.15;;
61076;SDS011;46956;52.186;19.716;2022-07-06T00:05:32;23.67;;;15.48;;
61076;SDS011;46956;52.186;19.716;2022-07-06T00:08:03;28.15;;;16.77;;
61076;SDS011;46956;52.186;19.716;2022-07-06T00:10:32;22.90;;;14.95;;
61076;SDS011;46956;52.186;19.716;2022-07-06T00:15:31;30.38;;;16.30;;
61076;SDS011;46956;52.186;19.716;2022-07-06T00:18:00;25.38;;;14.55;;
61076;SDS011;46956;52.186;19.716;2022-07-06T00:20:28;25.90;;;13.98;;
61076;SDS011;46956;52.186;19.716;2022-07-06T00:22:56;21.38;;;14.82;;
61076;SDS011;46956;52.186;19.716;2022-07-06T00:25:24;21.77;;;15.32;;
61076;SDS011;46956;52.186;19.716;2022-07-06T00:27:52;26.48;;;15.68;;
61076;SDS011;46956;52.186;19.716;2022-07-06T00:30:20;28.77;;;15.65;;
61076;SDS011;46956;52.186;19.716;2022-07-06T00:32:50;25.30;;;15.30;;
61076;SDS011;46956;52.186;19.716;2022-07-06T00:35:19;28.27;;;16.50;;
61076;SDS011;46956;52.186;19.716;2022-07-06T00:37:49;35.22;;;15.77;;
61076;SDS011;46956;52.186;19.716;2022-07-06T00:40:17;27.02;;;16.52;;
61076;SDS011;46956;52.186;19.716;2022-07-06T00:42:46;25.70;;;16.05;;
61076;SDS011;46956;52.186;19.716;2022-07-06T00:45:16;21.67;;;16.20;;
61076;SDS011;46956;52.186;19.716;2022-07-06T00:47:45;27.67;;;15.63;;
61076;SDS011;46956;52.186;19.716;2022-07-06T00:50:16;26.55;;;16.80;;
61076;SDS011;46956;52.186;19.716;2022-07-06T00:52:48;24.65;;;16.50;;
61076;SDS011;46956;52.186;19.716;2022-07-06T00:55:18;23.48;;;14.98;;
61076;SDS011;46956;52.186;19.716;2022-07-06T00:57:47;26.77;;;15.68;;
61076;SDS011;46956;52.186;19.716;2022-07-06T01:00:17;26.58;;;17.15;;
61076;SDS011;46956;52.186;19.716;2022-07-06T01:02:47;38.72;;;18.65;;
61076;SDS011;46956;52.186;19.716;2022-07-06T01:05:18;30.25;;;16.23;;
61076;SDS011;46956;52.186;19.716;2022-07-06T01:07:48;25.77;;;15.98;;
61076;SDS011;46956;52.186;19.716;2022-07-06T01:10:19;22.15;;;14.48;;
61076;SDS011;46956;52.186;19.716;2022-07-06T01:12:49;22.98;;;16.02;;
61076;SDS011;46956;52.186;19.716;2022-07-06T01:15:18;27.67;;;16.95;;
61076;SDS011;46956;52.186;19.716;2022-07-06T01:17:47;30.48;;;17.40;;
61076;SDS011;46956;52.186;19.716;2022-07-06T01:20:17;28.08;;;16.92;;
61076;SDS011;46956;52.186;19.716;2022-07-06T01:22:47;22.95;;;17.52;;
61076;SDS011;46956;52.186;19.716;2022-07-06T01:25:17;30.52;;;16.73;;
61076;SDS011;46956;52.186;19.716;2022-07-06T01:27:46;26.50;;;17.55;;
61076;SDS011;46956;52.186;19.716;2022-07-06T01:30:14;22.25;;;17.77;;
61076;SDS011;46956;52.186;19.716;2022-07-06T01:32:45;21.67;;;15.98;;
61076;SDS011;46956;52.186;19.716;2022-07-06T01:35:13;26.55;;;17.45;;
61076;SDS011;46956;52.186;19.716;2022-07-06T01:37:44;23.63;;;15.65;;
61076;SDS011;46956;52.186;19.716;2022-07-06T01:40:17;23.95;;;15.32;;
61076;SDS011;46956;52.186;19.716;2022-07-06T01:42:45;21.83;;;14.73;;
61076;SDS011;46956;52.186;19.716;2022-07-06T01:45:13;20.42;;;14.73;;
61076;SDS011;46956;52.186;19.716;2022-07-06T01:47:42;22.77;;;14.35;;
61076;SDS011;46956;52.186;19.716;2022-07-06T01:50:10;24.92;;;14.80;;
61076;SDS011;46956;52.186;19.716;2022-07-06T01:52:38;21.10;;;13.63;;
61076;SDS011;46956;52.186;19.716;2022-07-06T01:55:09;19.52;;;12.77;;
61076;SDS011;46956;52.186;19.716;2022-07-06T01:57:36;20.48;;;12.40;;
61076;SDS011;46956;52.186;19.716;2022-07-06T02:00:05;19.83;;;12.52;;
61076;SDS011;46956;52.186;19.716;2022-07-06T02:02:35;17.73;;;12.10;;
61076;SDS011;46956;52.186;19.716;2022-07-06T02:05:03;16.17;;;11.63;;
61076;SDS011;46956;52.186;19.716;2022-07-06T02:07:32;19.70;;;11.98;;
61076;SDS011;46956;52.186;19.716;2022-07-06T02:10:00;14.93;;;10.95;;
61076;SDS011;46956;52.186;19.716;2022-07-06T02:12:30;17.67;;;12.02;;
61076;SDS011;46956;52.186;19.716;2022-07-06T02:14:59;20.33;;;10.85;;
61076;SDS011;46956;52.186;19.716;2022-07-06T02:17:27;14.80;;;9.90;;
61076;SDS011;46956;52.186;19.716;2022-07-06T02:19:56;17.60;;;10.60;;
61076;SDS011;46956;52.186;19.716;2022-07-06T02:22:24;14.93;;;9.57;;
61076;SDS011;46956;52.186;19.716;2022-07-06T02:24:53;15.80;;;9.57;;
61076;SDS011;46956;52.186;19.716;2022-07-06T02:27:21;15.75;;;9.77;;
61076;SDS011;46956;52.186;19.716;2022-07-06T02:29:51;15.38;;;9.15;;
61076;SDS011;46956;52.186;19.716;2022-07-06T02:32:19;14.68;;;9.07;;
61076;SDS011;46956;52.186;19.716;2022-07-06T02:34:47;14.25;;;8.95;;
61076;SDS011;46956;52.186;19.716;2022-07-06T02:37:15;11.98;;;8.93;;
61076;SDS011;46956;52.186;19.716;2022-07-06T02:39:43;14.68;;;8.38;;
61076;SDS011;46956;52.186;19.716;2022-07-06T02:42:11;10.13;;;7.50;;
61076;SDS011;46956;52.186;19.716;2022-07-06T02:44:39;13.55;;;8.32;;
61076;SDS011;46956;52.186;19.716;2022-07-06T02:47:08;14.77;;;8.30;;
61076;SDS011;46956;52.186;19.716;2022-07-06T02:49:36;12.98;;;8.32;;
61076;SDS011;46956;52.186;19.716;2022-07-06T02:52:05;15.00;;;8.40;;
61076;SDS011;46956;52.186;19.716;2022-07-06T02:54:33;15.15;;;8.00;;
61076;SDS011;46956;52.186;19.716;2022-07-06T02:57:01;17.00;;;8.45;;
61076;SDS011;46956;52.186;19.716;2022-07-06T02:59:29;12.38;;;7.65;;
61076;SDS011;46956;52.186;19.716;2022-07-06T03:01:57;13.63;;;7.72;;
61076;SDS011;46956;52.186;19.716;2022-07-06T03:04:27;13.00;;;7.55;;
61076;SDS011;46956;52.186;19.716;2022-07-06T03:06:55;12.05;;;7.90;;
61076;SDS011;46956;52.186;19.716;2022-07-06T03:09:23;14.10;;;7.60;;
61076;SDS011;46956;52.186;19.716;2022-07-06T03:11:51;13.88;;;7.05;;
61076;SDS011;46956;52.186;19.716;2022-07-06T03:14:19;12.23;;;7.80;;
61076;SDS011;46956;52.186;19.716;2022-07-06T03:16:47;12.27;;;7.28;;
61076;SDS011;46956;52.186;19.716;2022-07-06T03:19:17;14.90;;;7.13;;
61076;SDS011;46956;52.186;19.716;2022-07-06T03:21:46;12.05;;;6.90;;
61076;SDS011;46956;52.186;19.716;2022-07-06T03:24:15;13.80;;;6.85;;
61076;SDS011;46956;52.186;19.716;2022-07-06T03:26:43;14.15;;;7.82;;
61076;SDS011;46956;52.186;19.716;2022-07-06T03:29:11;11.95;;;7.07;;
61076;SDS011;46956;52.186;19.716;2022-07-06T03:31:39;13.60;;;7.00;;
61076;SDS011;46956;52.186;19.716;2022-07-06T03:34:07;13.63;;;7.57;;
61076;SDS011;46956;52.186;19.716;2022-07-06T03:36:35;12.90;;;7.15;;
61076;SDS011;46956;52.186;19.716;2022-07-06T03:39:07;11.15;;;6.80;;
61076;SDS011;46956;52.186;19.716;2022-07-06T03:41:35;12.70;;;7.15;;
61076;SDS011;46956;52.186;19.716;2022-07-06T03:44:03;12.27;;;7.05;;
61076;SDS011;46956;52.186;19.716;2022-07-06T03:46:32;15.98;;;7.25;;
61076;SDS011;46956;52.186;19.716;2022-07-06T03:49:00;10.07;;;6.30;;
61076;SDS011;46956;52.186;19.716;2022-07-06T03:51:28;15.05;;;7.20;;
61076;SDS011;46956;52.186;19.716;2022-07-06T03:53:56;11.88;;;6.85;;
61076;SDS011;46956;52.186;19.716;2022-07-06T03:56:28;11.13;;;6.00;;
61076;SDS011;46956;52.186;19.716;2022-07-06T03:58:59;12.60;;;6.43;;
61076;SDS011;46956;52.186;19.716;2022-07-06T04:01:28;12.90;;;6.85;;
61076;SDS011;46956;52.186;19.716;2022-07-06T04:03:57;11.23;;;7.05;;
61076;SDS011;46956;52.186;19.716;2022-07-06T04:06:25;10.77;;;7.03;;
61076;SDS011;46956;52.186;19.716;2022-07-06T04:08:53;16.73;;;7.88;;
61076;SDS011;46956;52.186;19.716;2022-07-06T04:11:22;13.48;;;7.03;;
61076;SDS011;46956;52.186;19.716;2022-07-06T04:13:52;12.23;;;6.88;;
61076;SDS011;46956;52.186;19.716;2022-07-06T04:16:21;12.20;;;6.45;;
61076;SDS011;46956;52.186;19.716;2022-07-06T04:18:49;11.38;;;6.90;;
61076;SDS011;46956;52.186;19.716;2022-07-06T04:21:18;10.82;;;6.75;;
61076;SDS011;46956;52.186;19.716;2022-07-06T04:23:46;9.98;;;6.97;;
61076;SDS011;46956;52.186;19.716;2022-07-06T04:26:14;12.57;;;6.60;;
61076;SDS011;46956;52.186;19.716;2022-07-06T04:28:42;11.02;;;7.32;;
61076;SDS011;46956;52.186;19.716;2022-07-06T04:31:12;11.43;;;7.22;;
61076;SDS011;46956;52.186;19.716;2022-07-06T04:33:42;10.27;;;7.15;;
61076;SDS011;46956;52.186;19.716;2022-07-06T04:36:11;11.38;;;7.57;;
61076;SDS011;46956;52.186;19.716;2022-07-06T04:38:39;13.38;;;7.72;;
61076;SDS011;46956;52.186;19.716;2022-07-06T04:41:07;9.65;;;6.78;;
61076;SDS011;46956;52.186;19.716;2022-07-06T04:43:35;12.43;;;7.38;;
61076;SDS011;46956;52.186;19.716;2022-07-06T04:46:03;10.95;;;7.40;;
61076;SDS011;46956;52.186;19.716;2022-07-06T04:48:34;11.98;;;6.88;;
61076;SDS011;46956;52.186;19.716;2022-07-06T04:51:07;11.35;;;7.38;;
61076;SDS011;46956;52.186;19.716;2022-07-06T04:53:35;11.27;;;7.55;;
61076;SDS011;46956;52.186;19.716;2022-07-06T04:56:04;8.70;;;6.78;;
61076;SDS011;46956;52.186;19.716;2022-07-06T04:58:32;9.10;;;6.65;;
61076;SDS011;46956;52.186;19.716;2022-07-06T05:01:00;8.93;;;6.63;;
61076;SDS011;46956;52.186;19.716;2022-07-06T05:03:28;10.70;;;6.65;;
61076;SDS011;46956;52.186;19.716;2022-07-06T05:05:58;12.20;;;6.63;;
61076;SDS011;46956;52.186;19.716;2022-07-06T05:08:26;10.13;;;6.43;;
61076;SDS011;46956;52.186;19.716;2022-07-06T05:10:54;9.25;;;6.47;;
61076;SDS011;46956;52.186;19.716;2022-07-06T05:13:23;8.13;;;6.13;;
61076;SDS011;46956;52.186;19.716;2022-07-06T05:15:53;12.02;;;6.43;;
61076;SDS011;46956;52.186;19.716;2022-07-06T05:18:21;10.18;;;6.53;;
61076;SDS011;46956;52.186;19.716;2022-07-06T05:20:50;8.27;;;6.25;;
61076;SDS011;46956;52.186;19.716;2022-07-06T05:23:19;10.60;;;6.35;;
61076;SDS011;46956;52.186;19.716;2022-07-06T05:25:47;8.45;;;6.05;;
61076;SDS011;46956;52.186;19.716;2022-07-06T05:28:16;8.13;;;6.32;;
61076;SDS011;46956;52.186;19.716;2022-07-06T05:30:44;9.05;;;6.75;;
61076;SDS011;46956;52.186;19.716;2022-07-06T05:33:12;9.10;;;6.50;;
61076;SDS011;46956;52.186;19.716;2022-07-06T05:35:40;12.35;;;6.28;;
61076;SDS011;46956;52.186;19.716;2022-07-06T05:38:19;8.68;;;6.50;;
61076;SDS011;46956;52.186;19.716;2022-07-06T05:40:48;11.93;;;6.50;;
61076;SDS011;46956;52.186;19.716;2022-07-06T05:43:16;10.55;;;6.70;;
61076;SDS011;46956;52.186;19.716;2022-07-06T05:45:45;9.05;;;6.57;;
61076;SDS011;46956;52.186;19.716;2022-07-06T05:50:40;8.30;;;5.70;;
61076;SDS011;46956;52.186;19.716;2022-07-06T05:53:09;9.45;;;6.60;;
61076;SDS011;46956;52.186;19.716;2022-07-06T05:55:47;8.18;;;6.72;;
61076;SDS011;46956;52.186;19.716;2022-07-06T05:58:15;7.97;;;6.50;;
61076;SDS011;46956;52.186;19.716;2022-07-06T06:00:43;10.20;;;6.55;;
61076;SDS011;46956;52.186;19.716;2022-07-06T06:03:12;8.65;;;6.35;;
61076;SDS011;46956;52.186;19.716;2022-07-06T06:05:40;8.90;;;6.05;;
61076;SDS011;46956;52.186;19.716;2022-07-06T06:08:08;8.43;;;6.43;;
61076;SDS011;46956;52.186;19.716;2022-07-06T06:10:36;7.78;;;6.07;;
61076;SDS011;46956;52.186;19.716;2022-07-06T06:13:08;8.07;;;6.10;;
61076;SDS011;46956;52.186;19.716;2022-07-06T06:15:36;10.32;;;5.65;;
61076;SDS011;46956;52.186;19.716;2022-07-06T06:18:04;6.68;;;5.60;;
61076;SDS011;46956;52.186;19.716;2022-07-06T06:20:32;8.07;;;5.38;;
61076;SDS011;46956;52.186;19.716;2022-07-06T06:23:00;7.72;;;5.70;;
61076;SDS011;46956;52.186;19.716;2022-07-06T06:25:31;7.15;;;5.47;;
61076;SDS011;46956;52.186;19.716;2022-07-06T06:28:01;7.07;;;5.15;;
61076;SDS011;46956;52.186;19.716;2022-07-06T06:30:34;8.57;;;5.50;;
61076;SDS011;46956;52.186;19.716;2022-07-06T06:33:11;7.70;;;5.20;;
61076;SDS011;46956;52.186;19.716;2022-07-06T06:35:41;8.25;;;5.25;;
61076;SDS011;46956;52.186;19.716;2022-07-06T06:38:11;7.03;;;5.30;;
61076;SDS011;46956;52.186;19.716;2022-07-06T06:40:39;5.85;;;4.93;;
61076;SDS011;46956;52.186;19.716;2022-07-06T06:43:07;6.68;;;4.85;;
61076;SDS011;46956;52.186;19.716;2022-07-06T06:45:37;6.28;;;5.18;;
61076;SDS011;46956;52.186;19.716;2022-07-06T06:48:06;6.80;;;5.05;;
61076;SDS011;46956;52.186;19.716;2022-07-06T06:50:42;9.38;;;5.15;;
61076;SDS011;46956;52.186;19.716;2022-07-06T06:53:11;7.85;;;4.95;;
61076;SDS011;46956;52.186;19.716;2022-07-06T06:55:39;5.28;;;4.50;;
61076;SDS011;46956;52.186;19.716;2022-07-06T06:58:08;7.28;;;4.88;;
61076;SDS011;46956;52.186;19.716;2022-07-06T07:00:37;7.85;;;4.80;;
61076;SDS011;46956;52.186;19.716;2022-07-06T07:03:05;5.97;;;4.93;;
61076;SDS011;46956;52.186;19.716;2022-07-06T07:05:34;8.15;;;4.97;;
61076;SDS011;46956;52.186;19.716;2022-07-06T07:08:02;8.25;;;4.88;;
61076;SDS011;46956;52.186;19.716;2022-07-06T07:10:31;7.90;;;4.55;;
61076;SDS011;46956;52.186;19.716;2022-07-06T07:13:01;7.07;;;4.82;;
61076;SDS011;46956;52.186;19.716;2022-07-06T07:15:29;6.53;;;4.80;;
61076;SDS011;46956;52.186;19.716;2022-07-06T07:17:58;5.65;;;4.80;;
61076;SDS011;46956;52.186;19.716;2022-07-06T07:22:58;6.10;;;4.60;;
61076;SDS011;46956;52.186;19.716;2022-07-06T07:25:27;5.65;;;4.70;;
61076;SDS011;46956;52.186;19.716;2022-07-06T07:27:55;6.07;;;4.70;;
61076;SDS011;46956;52.186;19.716;2022-07-06T07:30:24;5.35;;;4.50;;
61076;SDS011;46956;52.186;19.716;2022-07-06T07:35:25;7.18;;;4.72;;
61076;SDS011;46956;52.186;19.716;2022-07-06T07:37:53;8.88;;;4.50;;
61076;SDS011;46956;52.186;19.716;2022-07-06T07:40:21;5.22;;;4.50;;
61076;SDS011;46956;52.186;19.716;2022-07-06T07:42:49;5.82;;;4.50;;
61076;SDS011;46956;52.186;19.716;2022-07-06T07:45:18;5.10;;;4.53;;
61076;SDS011;46956;52.186;19.716;2022-07-06T07:47:47;5.75;;;4.25;;
61076;SDS011;46956;52.186;19.716;2022-07-06T07:50:16;6.30;;;4.38;;
61076;SDS011;46956;52.186;19.716;2022-07-06T07:52:47;7.65;;;4.45;;
61076;SDS011;46956;52.186;19.716;2022-07-06T07:55:15;5.00;;;4.50;;
61076;SDS011;46956;52.186;19.716;2022-07-06T07:58:05;7.35;;;4.90;;
61076;SDS011;46956;52.186;19.716;2022-07-06T08:00:33;5.38;;;4.60;;
61076;SDS011;46956;52.186;19.716;2022-07-06T08:03:02;5.63;;;4.50;;
61076;SDS011;46956;52.186;19.716;2022-07-06T08:05:37;9.30;;;4.70;;
61076;SDS011;46956;52.186;19.716;2022-07-06T08:08:06;5.68;;;4.30;;
61076;SDS011;46956;52.186;19.716;2022-07-06T08:10:34;6.03;;;4.63;;
61076;SDS011;46956;52.186;19.716;2022-07-06T08:13:22;7.60;;;4.90;;
61076;SDS011;46956;52.186;19.716;2022-07-06T08:15:50;6.05;;;4.60;;
61076;SDS011;46956;52.186;19.716;2022-07-06T08:18:18;6.25;;;5.03;;
61076;SDS011;46956;52.186;19.716;2022-07-06T08:20:49;6.32;;;5.10;;
61076;SDS011;46956;52.186;19.716;2022-07-06T08:23:39;6.75;;;5.22;;
61076;SDS011;46956;52.186;19.716;2022-07-06T08:26:07;7.95;;;5.57;;
61076;SDS011;46956;52.186;19.716;2022-07-06T08:28:43;6.72;;;5.70;;
61076;SDS011;46956;52.186;19.716;2022-07-06T08:31:11;7.65;;;5.95;;
61076;SDS011;46956;52.186;19.716;2022-07-06T08:34:01;7.93;;;6.10;;
61076;SDS011;46956;52.186;19.716;2022-07-06T08:36:31;7.15;;;5.13;;
61076;SDS011;46956;52.186;19.716;2022-07-06T08:39:02;8.32;;;5.60;;
61076;SDS011;46956;52.186;19.716;2022-07-06T08:41:30;6.97;;;5.10;;
61076;SDS011;46956;52.186;19.716;2022-07-06T08:46:30;6.10;;;4.95;;
61076;SDS011;46956;52.186;19.716;2022-07-06T08:48:59;7.70;;;5.30;;
61076;SDS011;46956;52.186;19.716;2022-07-06T08:51:28;6.85;;;5.18;;
61076;SDS011;46956;52.186;19.716;2022-07-06T08:53:58;5.30;;;4.78;;
61076;SDS011;46956;52.186;19.716;2022-07-06T08:56:29;5.25;;;4.75;;
61076;SDS011;46956;52.186;19.716;2022-07-06T08:58:57;5.50;;;4.50;;
61076;SDS011;46956;52.186;19.716;2022-07-06T09:01:26;8.73;;;4.68;;
61076;SDS011;46956;52.186;19.716;2022-07-06T09:03:54;5.45;;;4.60;;
61076;SDS011;46956;52.186;19.716;2022-07-06T09:06:23;5.35;;;4.40;;
61076;SDS011;46956;52.186;19.716;2022-07-06T09:08:53;4.90;;;4.40;;
61076;SDS011;46956;52.186;19.716;2022-07-06T09:11:24;5.53;;;4.40;;
61076;SDS011;46956;52.186;19.716;2022-07-06T09:13:57;6.50;;;4.50;;
61076;SDS011;46956;52.186;19.716;2022-07-06T09:16:26;5.35;;;4.65;;
61076;SDS011;46956;52.186;19.716;2022-07-06T09:19:06;5.03;;;4.53;;
61076;SDS011;46956;52.186;19.716;2022-07-06T09:21:34;5.13;;;4.57;;
61076;SDS011;46956;52.186;19.716;2022-07-06T09:24:07;7.03;;;4.57;;
61076;SDS011;46956;52.186;19.716;2022-07-06T09:26:37;5.20;;;4.50;;
61076;SDS011;46956;52.186;19.716;2022-07-06T09:29:08;5.80;;;4.60;;
61076;SDS011;46956;52.186;19.716;2022-07-06T09:31:38;5.67;;;4.50;;
61076;SDS011;46956;52.186;19.716;2022-07-06T09:34:07;5.00;;;4.40;;
61076;SDS011;46956;52.186;19.716;2022-07-06T09:36:40;5.15;;;4.40;;
61076;SDS011;46956;52.186;19.716;2022-07-06T09:39:17;8.02;;;4.50;;
61076;SDS011;46956;52.186;19.716;2022-07-06T09:41:47;5.38;;;4.43;;
61076;SDS011;46956;52.186;19.716;2022-07-06T09:44:29;5.40;;;4.25;;
61076;SDS011;46956;52.186;19.716;2022-07-06T09:47:00;12.10;;;4.53;;
61076;SDS011;46956;52.186;19.716;2022-07-06T09:49:30;6.43;;;4.30;;
61076;SDS011;46956;52.186;19.716;2022-07-06T09:51:59;5.90;;;4.22;;
61076;SDS011;46956;52.186;19.716;2022-07-06T09:54:29;5.38;;;4.28;;
61076;SDS011;46956;52.186;19.716;2022-07-06T09:56:57;4.70;;;4.30;;
61076;SDS011;46956;52.186;19.716;2022-07-06T09:59:34;5.50;;;4.30;;
61076;SDS011;46956;52.186;19.716;2022-07-06T10:02:03;4.93;;;4.40;;
61076;SDS011;46956;52.186;19.716;2022-07-06T10:04:33;7.90;;;4.20;;
61076;SDS011;46956;52.186;19.716;2022-07-06T10:07:02;6.63;;;4.50;;
61076;SDS011;46956;52.186;19.716;2022-07-06T10:09:32;5.25;;;4.38;;
61076;SDS011;46956;52.186;19.716;2022-07-06T10:12:04;8.40;;;4.47;;
61076;SDS011;46956;52.186;19.716;2022-07-06T10:14:38;5.07;;;4.50;;
61076;SDS011;46956;52.186;19.716;2022-07-06T10:17:11;9.88;;;4.55;;
61076;SDS011;46956;52.186;19.716;2022-07-06T10:19:40;5.00;;;4.60;;
61076;SDS011;46956;52.186;19.716;2022-07-06T10:22:10;7.25;;;4.60;;
61076;SDS011;46956;52.186;19.716;2022-07-06T10:24:38;6.90;;;4.65;;
61076;SDS011;46956;52.186;19.716;2022-07-06T10:27:12;5.28;;;4.20;;
61076;SDS011;46956;52.186;19.716;2022-07-06T10:29:44;4.70;;;4.30;;
61076;SDS011;46956;52.186;19.716;2022-07-06T10:32:12;5.05;;;4.30;;
61076;SDS011;46956;52.186;19.716;2022-07-06T10:34:40;5.28;;;4.40;;
61076;SDS011;46956;52.186;19.716;2022-07-06T10:37:09;5.82;;;4.47;;
61076;SDS011;46956;52.186;19.716;2022-07-06T10:39:50;5.35;;;4.47;;
61076;SDS011;46956;52.186;19.716;2022-07-06T10:42:41;6.57;;;4.50;;
61076;SDS011;46956;52.186;19.716;2022-07-06T10:45:13;4.95;;;4.35;;
61076;SDS011;46956;52.186;19.716;2022-07-06T10:47:42;5.07;;;4.57;;
61076;SDS011;46956;52.186;19.716;2022-07-06T10:50:14;6.32;;;4.60;;
61076;SDS011;46956;52.186;19.716;2022-07-06T10:52:48;4.80;;;4.40;;
61076;SDS011;46956;52.186;19.716;2022-07-06T10:55:27;4.70;;;4.30;;
61076;SDS011;46956;52.186;19.716;2022-07-06T10:57:57;5.70;;;4.60;;
61076;SDS011;46956;52.186;19.716;2022-07-06T11:02:58;4.78;;;4.38;;
61076;SDS011;46956;52.186;19.716;2022-07-06T11:06:00;5.25;;;4.70;;
61076;SDS011;46956;52.186;19.716;2022-07-06T11:08:44;5.10;;;4.60;;
61076;SDS011;46956;52.186;19.716;2022-07-06T11:11:14;5.65;;;4.45;;
61076;SDS011;46956;52.186;19.716;2022-07-06T11:13:50;5.38;;;4.88;;
61076;SDS011;46956;52.186;19.716;2022-07-06T11:16:24;5.13;;;4.60;;
61076;SDS011;46956;52.186;19.716;2022-07-06T11:19:06;7.03;;;4.30;;
61076;SDS011;46956;52.186;19.716;2022-07-06T11:21:40;7.15;;;4.85;;
61076;SDS011;46956;52.186;19.716;2022-07-06T11:24:12;5.65;;;4.50;;
61076;SDS011;46956;52.186;19.716;2022-07-06T11:26:42;5.72;;;4.50;;
61076;SDS011;46956;52.186;19.716;2022-07-06T11:29:12;8.57;;;5.15;;
61076;SDS011;46956;52.186;19.716;2022-07-06T11:31:41;6.88;;;4.68;;
61076;SDS011;46956;52.186;19.716;2022-07-06T11:36:54;5.07;;;4.60;;
61076;SDS011;46956;52.186;19.716;2022-07-06T11:39:23;5.53;;;4.60;;
61076;SDS011;46956;52.186;19.716;2022-07-06T11:41:54;5.10;;;4.53;;
61076;SDS011;46956;52.186;19.716;2022-07-06T11:44:22;5.00;;;4.50;;
61076;SDS011;46956;52.186;19.716;2022-07-06T11:46:50;6.40;;;4.50;;
61076;SDS011;46956;52.186;19.716;2022-07-06T11:49:23;5.22;;;4.70;;
61076;SDS011;46956;52.186;19.716;2022-07-06T11:51:54;5.60;;;4.80;;
61076;SDS011;46956;52.186;19.716;2022-07-06T11:54:22;5.28;;;4.78;;
61076;SDS011;46956;52.186;19.716;2022-07-06T11:56:52;4.82;;;4.40;;
61076;SDS011;46956;52.186;19.716;2022-07-06T11:59:23;4.90;;;4.40;;
61076;SDS011;46956;52.186;19.716;2022-07-06T12:01:57;5.18;;;4.60;;
61076;SDS011;46956;52.186;19.716;2022-07-06T12:04:29;5.95;;;4.70;;
61076;SDS011;46956;52.186;19.716;2022-07-06T12:07:06;6.65;;;4.85;;
61076;SDS011;46956;52.186;19.716;2022-07-06T12:09:37;5.13;;;4.60;;
61076;SDS011;46956;52.186;19.716;2022-07-06T12:12:10;5.60;;;4.80;;
61076;SDS011;46956;52.186;19.716;2022-07-06T12:14:39;13.00;;;5.00;;
61076;SDS011;46956;52.186;19.716;2022-07-06T12:17:09;6.25;;;4.70;;
61076;SDS011;46956;52.186;19.716;2022-07-06T12:19:38;5.45;;;4.88;;
61076;SDS011;46956;52.186;19.716;2022-07-06T12:22:09;6.18;;;4.88;;
61076;SDS011;46956;52.186;19.716;2022-07-06T12:24:41;31.58;;;6.97;;
61076;SDS011;46956;52.186;19.716;2022-07-06T12:27:17;12.85;;;5.88;;
61076;SDS011;46956;52.186;19.716;2022-07-06T12:29:45;10.88;;;5.93;;
61076;SDS011;46956;52.186;19.716;2022-07-06T12:32:15;13.40;;;6.30;;
61076;SDS011;46956;52.186;19.716;2022-07-06T12:34:43;11.15;;;5.90;;
61076;SDS011;46956;52.186;19.716;2022-07-06T12:37:14;15.60;;;6.43;;
61076;SDS011;46956;52.186;19.716;2022-07-06T12:39:43;10.57;;;6.00;;
61076;SDS011;46956;52.186;19.716;2022-07-06T12:42:13;13.52;;;6.00;;
61076;SDS011;46956;52.186;19.716;2022-07-06T12:44:46;10.80;;;5.88;;
61076;SDS011;46956;52.186;19.716;2022-07-06T12:47:16;12.68;;;5.65;;
61076;SDS011;46956;52.186;19.716;2022-07-06T12:49:46;8.35;;;5.65;;
61076;SDS011;46956;52.186;19.716;2022-07-06T12:52:16;7.78;;;5.40;;
61076;SDS011;46956;52.186;19.716;2022-07-06T12:54:46;8.75;;;5.70;;
61076;SDS011;46956;52.186;19.716;2022-07-06T12:57:18;12.47;;;5.87;;
61076;SDS011;46956;52.186;19.716;2022-07-06T12:59:47;14.68;;;5.90;;
61076;SDS011;46956;52.186;19.716;2022-07-06T13:02:22;8.90;;;5.35;;
61076;SDS011;46956;52.186;19.716;2022-07-06T13:05:13;8.45;;;4.93;;
61076;SDS011;46956;52.186;19.716;2022-07-06T13:07:47;6.68;;;5.07;;
61076;SDS011;46956;52.186;19.716;2022-07-06T13:10:17;12.45;;;5.45;;
61076;SDS011;46956;52.186;19.716;2022-07-06T13:12:47;7.78;;;5.05;;
61076;SDS011;46956;52.186;19.716;2022-07-06T13:15:15;6.22;;;4.82;;
61076;SDS011;46956;52.186;19.716;2022-07-06T13:17:43;7.22;;;5.32;;
61076;SDS011;46956;52.186;19.716;2022-07-06T13:20:12;10.23;;;5.40;;
61076;SDS011;46956;52.186;19.716;2022-07-06T13:22:40;8.52;;;5.22;;
61076;SDS011;46956;52.186;19.716;2022-07-06T13:25:10;8.75;;;5.40;;
61076;SDS011;46956;52.186;19.716;2022-07-06T13:27:40;6.95;;;5.00;;
61076;SDS011;46956;52.186;19.716;2022-07-06T13:30:09;8.38;;;5.47;;
61076;SDS011;46956;52.186;19.716;2022-07-06T13:32:38;7.53;;;5.22;;
61076;SDS011;46956;52.186;19.716;2022-07-06T13:35:07;7.80;;;5.50;;
61076;SDS011;46956;52.186;19.716;2022-07-06T13:37:35;6.72;;;5.05;;
61076;SDS011;46956;52.186;19.716;2022-07-06T13:40:04;6.97;;;5.03;;
61076;SDS011;46956;52.186;19.716;2022-07-06T13:42:34;5.90;;;5.30;;
61076;SDS011;46956;52.186;19.716;2022-07-06T13:45:03;9.18;;;5.40;;
61076;SDS011;46956;52.186;19.716;2022-07-06T13:47:32;8.20;;;5.50;;
61076;SDS011;46956;52.186;19.716;2022-07-06T13:50:00;6.95;;;5.40;;
61076;SDS011;46956;52.186;19.716;2022-07-06T13:52:28;7.53;;;5.07;;
61076;SDS011;46956;52.186;19.716;2022-07-06T13:54:56;7.32;;;5.22;;
61076;SDS011;46956;52.186;19.716;2022-07-06T13:57:29;7.75;;;5.50;;
61076;SDS011;46956;52.186;19.716;2022-07-06T14:00:02;6.05;;;5.10;;
61076;SDS011;46956;52.186;19.716;2022-07-06T14:02:31;6.85;;;5.10;;
61076;SDS011;46956;52.186;19.716;2022-07-06T14:04:59;6.60;;;5.65;;
61076;SDS011;46956;52.186;19.716;2022-07-06T14:07:28;7.15;;;5.18;;
61076;SDS011;46956;52.186;19.716;2022-07-06T14:09:55;6.97;;;5.72;;
61076;SDS011;46956;52.186;19.716;2022-07-06T14:12:23;7.13;;;5.50;;
61076;SDS011;46956;52.186;19.716;2022-07-06T14:14:52;6.82;;;5.20;;
61076;SDS011;46956;52.186;19.716;2022-07-06T14:17:22;6.80;;;5.30;;
61076;SDS011;46956;52.186;19.716;2022-07-06T14:19:50;6.50;;;5.40;;
61076;SDS011;46956;52.186;19.716;2022-07-06T14:22:19;6.57;;;5.38;;
61076;SDS011;46956;52.186;19.716;2022-07-06T14:24:47;7.55;;;5.40;;
61076;SDS011;46956;52.186;19.716;2022-07-06T14:27:15;7.72;;;5.45;;
61076;SDS011;46956;52.186;19.716;2022-07-06T14:29:44;7.60;;;5.93;;
61076;SDS011;46956;52.186;19.716;2022-07-06T14:32:12;7.88;;;5.72;;
61076;SDS011;46956;52.186;19.716;2022-07-06T14:34:43;6.75;;;5.35;;
61076;SDS011;46956;52.186;19.716;2022-07-06T14:37:11;6.20;;;5.60;;
61076;SDS011;46956;52.186;19.716;2022-07-06T14:39:46;6.20;;;5.35;;
61076;SDS011;46956;52.186;19.716;2022-07-06T14:42:15;6.75;;;5.28;;
61076;SDS011;46956;52.186;19.716;2022-07-06T14:44:44;7.32;;;5.13;;
61076;SDS011;46956;52.186;19.716;2022-07-06T14:47:12;5.80;;;5.20;;
61076;SDS011;46956;52.186;19.716;2022-07-06T14:49:46;7.05;;;5.50;;
61076;SDS011;46956;52.186;19.716;2022-07-06T14:52:14;5.82;;;5.10;;
61076;SDS011;46956;52.186;19.716;2022-07-06T14:54:42;7.10;;;5.20;;
61076;SDS011;46956;52.186;19.716;2022-07-06T14:57:10;7.85;;;5.05;;
61076;SDS011;46956;52.186;19.716;2022-07-06T14:59:38;6.90;;;5.30;;
61076;SDS011;46956;52.186;19.716;2022-07-06T15:02:07;6.57;;;5.22;;